sensor_id;sensor_type;location;lat;lon;timestamp;pressure;altitude;pressure_sealevel;temperature;humidity
59475;BME280;45288;51.136;16.928;2024-03-23T00:54:27;99340.88;;;12.08;100.00
59475;BME280;45288;51.136;16.928;2024-03-23T00:56:53;99341.06;;;11.87;100.00
59475;BME280;45288;51.136;16.928;2024-03-23T00:59:19;99334.69;;;11.89;100.00
59475;BME280;45288;51.136;16.928;2024-03-23T01:01:45;99333.31;;;11.95;100.00
59475;BME280;45288;51.136;16.928;2024-03-23T01:04:11;99326.97;;;11.88;100.00
59475;BME280;45288;51.136;16.928;2024-03-23T01:06:36;99323.22;;;11.90;100.00
59475;BME280;45288;51.136;16.928;2024-03-23T01:09:02;99318.91;;;11.79;100.00
59475;BME280;45288;51.136;16.928;2024-03-23T01:11:28;99319.91;;;11.88;100.00
59475;BME280;45288;51.136;16.928;2024-03-23T01:13:54;99310.34;;;11.87;100.00
59475;BME280;45288;51.136;16.928;2024-03-23T01:16:21;99312.69;;;11.81;100.00
59475;BME280;45288;51.136;16.928;2024-03-23T01:18:47;99306.06;;;11.86;100.00
59475;BME280;45288;51.136;16.928;2024-03-23T01:21:13;99295.81;;;11.93;100.00
59475;BME280;45288;51.136;16.928;2024-03-23T01:23:39;99289.44;;;11.76;100.00
59475;BME280;45288;51.136;16.928;2024-03-23T01:26:05;99282.09;;;11.89;100.00
59475;BME280;45288;51.136;16.928;2024-03-23T01:28:31;99284.13;;;12.05;100.00
59475;BME280;45288;51.136;16.928;2024-03-23T01:30:57;99273.75;;;12.04;100.00
59475;BME280;45288;51.136;16.928;2024-03-23T01:33:22;99266.41;;;12.07;100.00
59475;BME280;45288;51.136;16.928;2024-03-23T01:35:48;99261.84;;;11.99;100.00
59475;BME280;45288;51.136;16.928;2024-03-23T01:38:13;99250.78;;;12.06;100.00
59475;BME280;45288;51.136;16.928;2024-03-23T01:40:39;99243.66;;;12.16;100.00
59475;BME280;45288;51.136;16.928;2024-03-23T01:43:07;99243.31;;;12.01;100.00
59475;BME280;45288;51.136;16.928;2024-03-23T01:45:36;99235.53;;;11.99;100.00
59475;BME280;45288;51.136;16.928;2024-03-23T01:48:02;99241.94;;;11.97;100.00
59475;BME280;45288;51.136;16.928;2024-03-23T01:50:29;99239.88;;;11.91;100.00
59475;BME280;45288;51.136;16.928;2024-03-23T01:53:00;99239.44;;;11.86;100.00
59475;BME280;45288;51.136;16.928;2024-03-23T01:55:26;99234.78;;;11.70;100.00
59475;BME280;45288;51.136;16.928;2024-03-23T01:57:52;99233.69;;;11.72;100.00
59475;BME280;45288;51.136;16.928;2024-03-23T02:00:18;99229.22;;;11.83;100.00
59475;BME280;45288;51.136;16.928;2024-03-23T02:02:44;99233.91;;;11.79;100.00
59475;BME280;45288;51.136;16.928;2024-03-23T02:05:11;99223.41;;;11.89;100.00
59475;BME280;45288;51.136;16.928;2024-03-23T02:07:41;99226.84;;;11.89;100.00
59475;BME280;45288;51.136;16.928;2024-03-23T02:10:09;99221.69;;;11.97;100.00
59475;BME280;45288;51.136;16.928;2024-03-23T02:12:36;99221.28;;;12.02;100.00
59475;BME280;45288;51.136;16.928;2024-03-23T02:15:02;99215.09;;;11.93;100.00
59475;BME280;45288;51.136;16.928;2024-03-23T02:17:31;99205.53;;;11.92;100.00
59475;BME280;45288;51.136;16.928;2024-03-23T02:19:57;99204.56;;;11.84;100.00
59475;BME280;45288;51.136;16.928;2024-03-23T02:22:23;99190.03;;;11.89;100.00
59475;BME280;45288;51.136;16.928;2024-03-23T02:24:49;99183.22;;;11.96;100.00
59475;BME280;45288;51.136;16.928;2024-03-23T02:27:15;99190.19;;;11.88;100.00
59475;BME280;45288;51.136;16.928;2024-03-23T02:29:40;99182.69;;;11.83;100.00
59475;BME280;45288;51.136;16.928;2024-03-23T02:32:06;99186.00;;;11.95;100.00
59475;BME280;45288;51.136;16.928;2024-03-23T02:34:35;99186.28;;;11.82;100.00
59475;BME280;45288;51.136;16.928;2024-03-23T02:37:00;99179.84;;;11.67;100.00
59475;BME280;45288;51.136;16.928;2024-03-23T02:39:26;99183.53;;;11.84;100.00
59475;BME280;45288;51.136;16.928;2024-03-23T02:41:52;99174.41;;;11.78;100.00
59475;BME280;45288;51.136;16.928;2024-03-23T02:44:18;99170.59;;;11.63;100.00
59475;BME280;45288;51.136;16.928;2024-03-23T02:46:43;99175.19;;;11.51;100.00
59475;BME280;45288;51.136;16.928;2024-03-23T02:49:09;99165.16;;;11.37;100.00
59475;BME280;45288;51.136;16.928;2024-03-23T02:51:35;99164.81;;;11.59;100.00
59475;BME280;45288;51.136;16.928;2024-03-23T02:54:00;99164.34;;;11.64;100.00
59475;BME280;45288;51.136;16.928;2024-03-23T02:56:26;99158.25;;;11.73;100.00
59475;BME280;45288;51.136;16.928;2024-03-23T02:58:52;99152.16;;;11.72;100.00
59475;BME280;45288;51.136;16.928;2024-03-23T03:01:17;99159.19;;;11.72;100.00
59475;BME280;45288;51.136;16.928;2024-03-23T03:03:43;99152.41;;;11.89;100.00
59475;BME280;45288;51.136;16.928;2024-03-23T03:06:10;99156.31;;;12.03;100.00
59475;BME280;45288;51.136;16.928;2024-03-23T03:08:35;99155.47;;;12.12;100.00
59475;BME280;45288;51.136;16.928;2024-03-23T03:11:01;99153.53;;;12.14;100.00
59475;BME280;45288;51.136;16.928;2024-03-23T03:13:27;99152.53;;;12.15;100.00
59475;BME280;45288;51.136;16.928;2024-03-23T03:15:53;99136.97;;;12.04;100.00
59475;BME280;45288;51.136;16.928;2024-03-23T03:18:18;99134.72;;;12.09;100.00
59475;BME280;45288;51.136;16.928;2024-03-23T03:20:45;99129.75;;;12.06;100.00
59475;BME280;45288;51.136;16.928;2024-03-23T03:23:11;99127.03;;;12.15;100.00
59475;BME280;45288;51.136;16.928;2024-03-23T03:25:37;99129.75;;;12.23;100.00
59475;BME280;45288;51.136;16.928;2024-03-23T03:28:03;99124.97;;;12.19;100.00
59475;BME280;45288;51.136;16.928;2024-03-23T03:30:29;99117.72;;;12.03;100.00
59475;BME280;45288;51.136;16.928;2024-03-23T03:32:55;99114.34;;;12.11;100.00
59475;BME280;45288;51.136;16.928;2024-03-23T03:35:20;99108.31;;;12.00;100.00
59475;BME280;45288;51.136;16.928;2024-03-23T03:37:46;99109.81;;;12.03;100.00
59475;BME280;45288;51.136;16.928;2024-03-23T03:40:12;99107.13;;;12.13;100.00
59475;BME280;45288;51.136;16.928;2024-03-23T03:42:40;99102.53;;;12.15;100.00
59475;BME280;45288;51.136;16.928;2024-03-23T03:45:07;99101.19;;;12.29;100.00
59475;BME280;45288;51.136;16.928;2024-03-23T03:47:33;99102.69;;;12.31;100.00
59475;BME280;45288;51.136;16.928;2024-03-23T03:49:59;99098.72;;;12.27;100.00
59475;BME280;45288;51.136;16.928;2024-03-23T03:52:25;99090.09;;;12.35;100.00
59475;BME280;45288;51.136;16.928;2024-03-23T03:54:51;99090.47;;;12.40;100.00
59475;BME280;45288;51.136;16.928;2024-03-23T03:57:17;99091.72;;;12.36;100.00
59475;BME280;45288;51.136;16.928;2024-03-23T03:59:43;99099.31;;;12.39;100.00
59475;BME280;45288;51.136;16.928;2024-03-23T04:02:09;99088.56;;;12.32;100.00
59475;BME280;45288;51.136;16.928;2024-03-23T04:04:35;99093.84;;;12.32;100.00
59475;BME280;45288;51.136;16.928;2024-03-23T04:07:02;99094.34;;;12.36;100.00
59475;BME280;45288;51.136;16.928;2024-03-23T04:09:27;99091.03;;;12.34;100.00
59475;BME280;45288;51.136;16.928;2024-03-23T04:11:53;99093.84;;;12.32;100.00
59475;BME280;45288;51.136;16.928;2024-03-23T04:14:19;99095.19;;;12.36;100.00
59475;BME280;45288;51.136;16.928;2024-03-23T04:16:45;99101.44;;;12.35;100.00
59475;BME280;45288;51.136;16.928;2024-03-23T04:19:10;99096.41;;;12.24;100.00
59475;BME280;45288;51.136;16.928;2024-03-23T04:21:41;99097.19;;;12.07;100.00
59475;BME280;45288;51.136;16.928;2024-03-23T04:24:06;99096.38;;;12.06;100.00
59475;BME280;45288;51.136;16.928;2024-03-23T04:26:42;99089.16;;;12.08;100.00
59475;BME280;45288;51.136;16.928;2024-03-23T04:29:08;99091.31;;;12.13;100.00
59475;BME280;45288;51.136;16.928;2024-03-23T04:31:34;99088.81;;;12.21;100.00
59475;BME280;45288;51.136;16.928;2024-03-23T04:34:03;99089.47;;;12.23;100.00
59475;BME280;45288;51.136;16.928;2024-03-23T04:36:29;99083.31;;;12.14;100.00
59475;BME280;45288;51.136;16.928;2024-03-23T04:38:59;99085.41;;;12.11;100.00
59475;BME280;45288;51.136;16.928;2024-03-23T04:41:26;99076.22;;;12.15;100.00
59475;BME280;45288;51.136;16.928;2024-03-23T04:43:51;99068.03;;;12.18;100.00
59475;BME280;45288;51.136;16.928;2024-03-23T04:46:17;99071.75;;;11.97;100.00
59475;BME280;45288;51.136;16.928;2024-03-23T04:48:43;99071.50;;;12.00;100.00
59475;BME280;45288;51.136;16.928;2024-03-23T04:51:10;99077.53;;;12.11;100.00
59475;BME280;45288;51.136;16.928;2024-03-23T04:53:38;99062.91;;;11.71;100.00
59475;BME280;45288;51.136;16.928;2024-03-23T04:56:04;99070.19;;;11.77;100.00
59475;BME280;45288;51.136;16.928;2024-03-23T04:58:29;99065.09;;;11.75;100.00
59475;BME280;45288;51.136;16.928;2024-03-23T05:00:56;99062.97;;;11.89;100.00
59475;BME280;45288;51.136;16.928;2024-03-23T05:03:22;99059.09;;;11.93;100.00
59475;BME280;45288;51.136;16.928;2024-03-23T05:05:49;99056.72;;;11.90;100.00
59475;BME280;45288;51.136;16.928;2024-03-23T05:08:15;99066.38;;;11.99;100.00
59475;BME280;45288;51.136;16.928;2024-03-23T05:10:43;99059.47;;;11.98;100.00
59475;BME280;45288;51.136;16.928;2024-03-23T05:13:09;99056.75;;;12.08;100.00
59475;BME280;45288;51.136;16.928;2024-03-23T05:15:35;99060.72;;;11.94;100.00
59475;BME280;45288;51.136;16.928;2024-03-23T05:18:01;99055.84;;;11.99;100.00
59475;BME280;45288;51.136;16.928;2024-03-23T05:20:27;99051.03;;;11.94;100.00
59475;BME280;45288;51.136;16.928;2024-03-23T05:22:54;99040.88;;;11.99;100.00
59475;BME280;45288;51.136;16.928;2024-03-23T05:25:20;99036.44;;;12.00;100.00
59475;BME280;45288;51.136;16.928;2024-03-23T05:27:45;99040.56;;;12.03;100.00
59475;BME280;45288;51.136;16.928;2024-03-23T05:30:11;99045.06;;;11.92;100.00
59475;BME280;45288;51.136;16.928;2024-03-23T05:32:37;99040.50;;;11.94;100.00
59475;BME280;45288;51.136;16.928;2024-03-23T05:35:09;99034.13;;;12.15;100.00
59475;BME280;45288;51.136;16.928;2024-03-23T05:37:35;99033.25;;;12.24;100.00
59475;BME280;45288;51.136;16.928;2024-03-23T05:40:01;99030.66;;;12.32;100.00
59475;BME280;45288;51.136;16.928;2024-03-23T05:42:27;99025.72;;;12.29;100.00
59475;BME280;45288;51.136;16.928;2024-03-23T05:44:52;99025.47;;;12.22;100.00
59475;BME280;45288;51.136;16.928;2024-03-23T05:47:18;99030.31;;;12.27;100.00
59475;BME280;45288;51.136;16.928;2024-03-23T05:49:45;99028.50;;;12.28;100.00
59475;BME280;45288;51.136;16.928;2024-03-23T05:52:13;99027.72;;;12.35;100.00
59475;BME280;45288;51.136;16.928;2024-03-23T05:54:39;99017.88;;;12.37;100.00
59475;BME280;45288;51.136;16.928;2024-03-23T05:57:05;99001.16;;;12.47;100.00
59475;BME280;45288;51.136;16.928;2024-03-23T05:59:33;99004.56;;;12.39;100.00
59475;BME280;45288;51.136;16.928;2024-03-23T06:01:59;99006.75;;;12.43;100.00
59475;BME280;45288;51.136;16.928;2024-03-23T06:04:24;99007.47;;;12.54;100.00
59475;BME280;45288;51.136;16.928;2024-03-23T06:06:51;99014.59;;;12.61;100.00
59475;BME280;45288;51.136;16.928;2024-03-23T06:09:18;99008.84;;;12.58;100.00
59475;BME280;45288;51.136;16.928;2024-03-23T06:11:44;99019.38;;;12.58;100.00
59475;BME280;45288;51.136;16.928;2024-03-23T06:14:10;99032.31;;;12.33;100.00
59475;BME280;45288;51.136;16.928;2024-03-23T06:16:36;99041.06;;;12.16;100.00
59475;BME280;45288;51.136;16.928;2024-03-23T06:19:03;99046.59;;;12.13;100.00
59475;BME280;45288;51.136;16.928;2024-03-23T06:21:30;99044.22;;;12.19;100.00
59475;BME280;45288;51.136;16.928;2024-03-23T06:23:55;99039.00;;;12.28;100.00
59475;BME280;45288;51.136;16.928;2024-03-23T06:26:21;99030.00;;;12.30;100.00
59475;BME280;45288;51.136;16.928;2024-03-23T06:28:47;99012.44;;;12.39;100.00
59475;BME280;45288;51.136;16.928;2024-03-23T06:31:13;99016.44;;;12.43;100.00
59475;BME280;45288;51.136;16.928;2024-03-23T06:33:39;99005.69;;;12.36;100.00
59475;BME280;45288;51.136;16.928;2024-03-23T06:36:09;98979.59;;;12.43;100.00
59475;BME280;45288;51.136;16.928;2024-03-23T06:38:35;98969.88;;;12.43;100.00
59475;BME280;45288;51.136;16.928;2024-03-23T06:41:04;98968.84;;;12.36;100.00
59475;BME280;45288;51.136;16.928;2024-03-23T06:43:30;98960.34;;;12.42;100.00
59475;BME280;45288;51.136;16.928;2024-03-23T06:45:56;98966.81;;;12.30;100.00
59475;BME280;45288;51.136;16.928;2024-03-23T06:48:22;98968.69;;;12.38;100.00
59475;BME280;45288;51.136;16.928;2024-03-23T06:50:49;98961.66;;;12.47;100.00
59475;BME280;45288;51.136;16.928;2024-03-23T06:53:15;98967.03;;;12.55;100.00
59475;BME280;45288;51.136;16.928;2024-03-23T06:55:41;98957.09;;;12.49;100.00
59475;BME280;45288;51.136;16.928;2024-03-23T06:58:07;98958.50;;;12.61;100.00
59475;BME280;45288;51.136;16.928;2024-03-23T07:00:33;98951.94;;;12.65;100.00
59475;BME280;45288;51.136;16.928;2024-03-23T07:03:00;98945.38;;;12.69;100.00
59475;BME280;45288;51.136;16.928;2024-03-23T07:05:26;98940.34;;;12.84;100.00
59475;BME280;45288;51.136;16.928;2024-03-23T07:07:52;98922.63;;;12.60;100.00
59475;BME280;45288;51.136;16.928;2024-03-23T07:10:17;98912.59;;;12.63;100.00
59475;BME280;45288;51.136;16.928;2024-03-23T07:12:44;98926.91;;;12.61;100.00
59475;BME280;45288;51.136;16.928;2024-03-23T07:15:09;98913.38;;;12.56;100.00
59475;BME280;45288;51.136;16.928;2024-03-23T07:17:35;98900.91;;;12.66;100.00
59475;BME280;45288;51.136;16.928;2024-03-23T07:20:02;98890.13;;;12.85;100.00
59475;BME280;45288;51.136;16.928;2024-03-23T07:22:32;98890.84;;;12.96;100.00
59475;BME280;45288;51.136;16.928;2024-03-23T07:25:01;98890.00;;;12.95;100.00
59475;BME280;45288;51.136;16.928;2024-03-23T07:27:27;98889.88;;;12.97;100.00
59475;BME280;45288;51.136;16.928;2024-03-23T07:29:53;98885.63;;;13.04;100.00
59475;BME280;45288;51.136;16.928;2024-03-23T07:32:19;98880.81;;;12.99;100.00
59475;BME280;45288;51.136;16.928;2024-03-23T07:34:44;98878.22;;;13.16;100.00
59475;BME280;45288;51.136;16.928;2024-03-23T07:37:10;98877.81;;;13.28;100.00
59475;BME280;45288;51.136;16.928;2024-03-23T07:39:36;98869.88;;;13.28;100.00
59475;BME280;45288;51.136;16.928;2024-03-23T07:42:02;98856.09;;;13.43;100.00
59475;BME280;45288;51.136;16.928;2024-03-23T07:44:28;98856.28;;;13.66;100.00
59475;BME280;45288;51.136;16.928;2024-03-23T07:46:54;98853.13;;;13.54;100.00
59475;BME280;45288;51.136;16.928;2024-03-23T07:49:20;98838.31;;;13.53;100.00
59475;BME280;45288;51.136;16.928;2024-03-23T07:51:45;98826.28;;;13.67;100.00
59475;BME280;45288;51.136;16.928;2024-03-23T07:54:11;98819.84;;;13.94;100.00
59475;BME280;45288;51.136;16.928;2024-03-23T07:56:37;98818.81;;;13.95;100.00
59475;BME280;45288;51.136;16.928;2024-03-23T07:59:03;98825.09;;;14.02;100.00
59475;BME280;45288;51.136;16.928;2024-03-23T08:01:29;98820.28;;;14.14;99.93
59475;BME280;45288;51.136;16.928;2024-03-23T08:03:55;98823.56;;;14.16;99.46
59475;BME280;45288;51.136;16.928;2024-03-23T08:06:21;98828.69;;;14.17;98.72
59475;BME280;45288;51.136;16.928;2024-03-23T08:08:55;98825.22;;;14.25;99.65
59475;BME280;45288;51.136;16.928;2024-03-23T08:11:28;98811.66;;;14.28;99.64
59475;BME280;45288;51.136;16.928;2024-03-23T08:13:55;98814.75;;;14.40;99.11
59475;BME280;45288;51.136;16.928;2024-03-23T08:16:21;98805.78;;;14.66;99.19
59475;BME280;45288;51.136;16.928;2024-03-23T08:18:46;98808.81;;;14.54;98.45
59475;BME280;45288;51.136;16.928;2024-03-23T08:21:12;98793.22;;;14.68;99.57
59475;BME280;45288;51.136;16.928;2024-03-23T08:23:38;98795.53;;;14.71;100.00
59475;BME280;45288;51.136;16.928;2024-03-23T08:26:07;98779.97;;;14.76;98.12
59475;BME280;45288;51.136;16.928;2024-03-23T08:28:34;98769.66;;;14.89;96.24
59475;BME280;45288;51.136;16.928;2024-03-23T08:31:18;98757.44;;;14.88;96.00
59475;BME280;45288;51.136;16.928;2024-03-23T08:33:43;98736.78;;;14.92;95.48
59475;BME280;45288;51.136;16.928;2024-03-23T08:36:10;98743.50;;;15.02;95.26
59475;BME280;45288;51.136;16.928;2024-03-23T08:38:40;98730.44;;;15.01;91.01
59475;BME280;45288;51.136;16.928;2024-03-23T08:41:10;98734.09;;;15.00;88.98
59475;BME280;45288;51.136;16.928;2024-03-23T08:43:38;98724.81;;;15.04;91.11
59475;BME280;45288;51.136;16.928;2024-03-23T08:46:08;98715.91;;;15.05;91.81
59475;BME280;45288;51.136;16.928;2024-03-23T08:48:35;98709.75;;;15.04;91.33
59475;BME280;45288;51.136;16.928;2024-03-23T08:51:04;98712.09;;;15.22;91.54
59475;BME280;45288;51.136;16.928;2024-03-23T08:53:31;98706.44;;;15.25;87.02
59475;BME280;45288;51.136;16.928;2024-03-23T08:55:58;98713.19;;;15.13;87.31
59475;BME280;45288;51.136;16.928;2024-03-23T08:58:25;98708.00;;;15.20;87.79
59475;BME280;45288;51.136;16.928;2024-03-23T09:00:51;98697.53;;;15.26;89.29
59475;BME280;45288;51.136;16.928;2024-03-23T09:03:17;98694.69;;;15.28;89.30
59475;BME280;45288;51.136;16.928;2024-03-23T09:05:43;98681.31;;;15.30;90.07
59475;BME280;45288;51.136;16.928;2024-03-23T09:08:09;98678.78;;;15.36;86.86
59475;BME280;45288;51.136;16.928;2024-03-23T09:10:39;98660.81;;;15.32;88.07
59475;BME280;45288;51.136;16.928;2024-03-23T09:13:05;98662.22;;;15.19;88.65
59475;BME280;45288;51.136;16.928;2024-03-23T09:15:35;98655.19;;;15.12;88.47
59475;BME280;45288;51.136;16.928;2024-03-23T09:18:01;98651.63;;;15.04;88.81
59475;BME280;45288;51.136;16.928;2024-03-23T09:20:27;98657.19;;;15.10;89.01
59475;BME280;45288;51.136;16.928;2024-03-23T09:22:53;98650.84;;;15.19;88.29
59475;BME280;45288;51.136;16.928;2024-03-23T09:25:18;98636.97;;;15.17;87.52
59475;BME280;45288;51.136;16.928;2024-03-23T09:27:47;98633.41;;;15.10;88.05
59475;BME280;45288;51.136;16.928;2024-03-23T09:30:13;98638.41;;;15.04;88.51
59475;BME280;45288;51.136;16.928;2024-03-23T09:32:42;98623.91;;;15.00;88.49
59475;BME280;45288;51.136;16.928;2024-03-23T09:35:09;98625.97;;;14.90;89.53
59475;BME280;45288;51.136;16.928;2024-03-23T09:37:34;98608.53;;;14.81;90.55
59475;BME280;45288;51.136;16.928;2024-03-23T09:40:00;98599.44;;;14.83;90.75
59475;BME280;45288;51.136;16.928;2024-03-23T09:42:26;98587.88;;;14.85;91.19
59475;BME280;45288;51.136;16.928;2024-03-23T09:44:52;98592.91;;;14.94;90.72
59475;BME280;45288;51.136;16.928;2024-03-23T09:47:17;98595.13;;;15.05;90.10
59475;BME280;45288;51.136;16.928;2024-03-23T09:49:44;98590.91;;;14.96;91.20
59475;BME280;45288;51.136;16.928;2024-03-23T09:52:10;98589.34;;;15.02;91.83
59475;BME280;45288;51.136;16.928;2024-03-23T09:54:36;98582.84;;;15.13;91.42
59475;BME280;45288;51.136;16.928;2024-03-23T09:57:03;98571.28;;;15.29;91.30
59475;BME280;45288;51.136;16.928;2024-03-23T09:59:29;98560.69;;;15.43;89.98
59475;BME280;45288;51.136;16.928;2024-03-23T10:01:55;98549.28;;;15.58;88.33
59475;BME280;45288;51.136;16.928;2024-03-23T10:04:37;98550.13;;;15.73;86.52
59475;BME280;45288;51.136;16.928;2024-03-23T10:07:19;98554.59;;;15.73;87.81
59475;BME280;45288;51.136;16.928;2024-03-23T10:09:45;98540.72;;;15.70;87.61
59475;BME280;45288;51.136;16.928;2024-03-23T10:12:16;98540.44;;;15.80;85.14
59475;BME280;45288;51.136;16.928;2024-03-23T10:14:43;98540.59;;;15.79;84.93
59475;BME280;45288;51.136;16.928;2024-03-23T10:19:49;98544.97;;;15.86;84.98
59475;BME280;45288;51.136;16.928;2024-03-23T10:22:18;98541.50;;;15.86;86.96
59475;BME280;45288;51.136;16.928;2024-03-23T10:24:44;98544.03;;;15.94;87.83
59475;BME280;45288;51.136;16.928;2024-03-23T10:27:18;98540.22;;;16.18;88.81
59475;BME280;45288;51.136;16.928;2024-03-23T10:29:47;98539.78;;;16.36;86.62
59475;BME280;45288;51.136;16.928;2024-03-23T10:32:17;98533.41;;;16.52;86.91
59475;BME280;45288;51.136;16.928;2024-03-23T10:34:44;98538.44;;;16.68;85.65
59475;BME280;45288;51.136;16.928;2024-03-23T10:37:11;98522.28;;;16.85;83.61
59475;BME280;45288;51.136;16.928;2024-03-23T10:39:39;98512.47;;;16.78;78.62
59475;BME280;45288;51.136;16.928;2024-03-23T10:42:06;98520.25;;;16.87;79.23
59475;BME280;45288;51.136;16.928;2024-03-23T10:44:33;98516.16;;;17.12;80.36
59475;BME280;45288;51.136;16.928;2024-03-23T10:47:01;98509.13;;;17.39;79.82
59475;BME280;45288;51.136;16.928;2024-03-23T10:49:29;98510.41;;;17.50;80.00
59475;BME280;45288;51.136;16.928;2024-03-23T10:52:05;98504.59;;;17.27;77.06
59475;BME280;45288;51.136;16.928;2024-03-23T10:54:32;98498.06;;;17.22;77.95
59475;BME280;45288;51.136;16.928;2024-03-23T10:57:15;98490.88;;;17.16;78.47
59475;BME280;45288;51.136;16.928;2024-03-23T10:59:43;98474.38;;;17.21;78.15
59475;BME280;45288;51.136;16.928;2024-03-23T11:02:19;98473.72;;;17.12;77.08
59475;BME280;45288;51.136;16.928;2024-03-23T11:04:45;98467.03;;;17.23;77.63
59475;BME280;45288;51.136;16.928;2024-03-23T11:09:50;98464.47;;;17.43;77.10
59475;BME280;45288;51.136;16.928;2024-03-23T11:14:51;98455.31;;;17.52;77.88
59475;BME280;45288;51.136;16.928;2024-03-23T11:17:21;98448.78;;;17.48;77.89
59475;BME280;45288;51.136;16.928;2024-03-23T11:19:56;98445.69;;;17.38;78.81
59475;BME280;45288;51.136;16.928;2024-03-23T11:22:43;98445.50;;;17.53;77.16
59475;BME280;45288;51.136;16.928;2024-03-23T11:27:45;98431.06;;;17.62;75.05
59475;BME280;45288;51.136;16.928;2024-03-23T11:32:43;98427.91;;;17.86;74.25
59475;BME280;45288;51.136;16.928;2024-03-23T11:35:09;98424.41;;;17.86;73.92
59475;BME280;45288;51.136;16.928;2024-03-23T11:37:37;98416.63;;;17.91;73.05
59475;BME280;45288;51.136;16.928;2024-03-23T11:40:21;98409.91;;;17.88;72.69
59475;BME280;45288;51.136;16.928;2024-03-23T11:42:55;98397.00;;;17.79;69.83
59475;BME280;45288;51.136;16.928;2024-03-23T11:45:21;98392.09;;;17.76;69.51
59475;BME280;45288;51.136;16.928;2024-03-23T11:47:46;98389.44;;;17.76;70.91
59475;BME280;45288;51.136;16.928;2024-03-23T11:50:19;98383.06;;;17.57;67.69
59475;BME280;45288;51.136;16.928;2024-03-23T11:52:45;98375.50;;;17.47;68.25
59475;BME280;45288;51.136;16.928;2024-03-23T11:55:10;98385.88;;;17.42;69.42
59475;BME280;45288;51.136;16.928;2024-03-23T11:57:36;98397.50;;;17.34;70.33
59475;BME280;45288;51.136;16.928;2024-03-23T12:00:20;98406.25;;;17.28;69.75
59475;BME280;45288;51.136;16.928;2024-03-23T12:02:46;98430.72;;;17.23;72.04
59475;BME280;45288;51.136;16.928;2024-03-23T12:05:20;98431.53;;;17.17;69.80
59475;BME280;45288;51.136;16.928;2024-03-23T12:07:45;98430.66;;;17.10;72.43
59475;BME280;45288;51.136;16.928;2024-03-23T12:10:11;98434.75;;;17.13;73.58
59475;BME280;45288;51.136;16.928;2024-03-23T12:12:36;98430.59;;;16.97;73.49
59475;BME280;45288;51.136;16.928;2024-03-23T12:15:07;98437.69;;;16.90;71.25
59475;BME280;45288;51.136;16.928;2024-03-23T12:17:34;98435.03;;;16.83;69.92
59475;BME280;45288;51.136;16.928;2024-03-23T12:20:03;98445.22;;;16.86;68.35
59475;BME280;45288;51.136;16.928;2024-03-23T12:22:30;98439.44;;;16.76;70.78
59475;BME280;45288;51.136;16.928;2024-03-23T12:24:56;98443.06;;;16.68;70.81
59475;BME280;45288;51.136;16.928;2024-03-23T12:27:22;98450.47;;;16.79;69.67
59475;BME280;45288;51.136;16.928;2024-03-23T12:29:48;98446.66;;;16.61;70.66
59475;BME280;45288;51.136;16.928;2024-03-23T12:32:14;98433.19;;;16.55;70.68
59475;BME280;45288;51.136;16.928;2024-03-23T12:34:40;98436.78;;;16.48;71.20
59475;BME280;45288;51.136;16.928;2024-03-23T12:54:34;98464.31;;;15.82;71.57
59475;BME280;45288;51.136;16.928;2024-03-23T12:57:34;98448.16;;;15.77;72.98
59475;BME280;45288;51.136;16.928;2024-03-23T13:00:00;98488.00;;;15.54;77.72
59475;BME280;45288;51.136;16.928;2024-03-23T13:02:26;98503.13;;;14.86;85.98
59475;BME280;45288;51.136;16.928;2024-03-23T13:04:53;98545.09;;;14.43;86.41
59475;BME280;45288;51.136;16.928;2024-03-23T13:07:20;98539.75;;;14.05;85.45
59475;BME280;45288;51.136;16.928;2024-03-23T13:09:47;98583.13;;;13.71;86.37
59475;BME280;45288;51.136;16.928;2024-03-23T13:12:13;98538.94;;;13.18;93.04
59475;BME280;45288;51.136;16.928;2024-03-23T13:14:39;98550.00;;;13.13;98.10
59475;BME280;45288;51.136;16.928;2024-03-23T13:17:05;98558.78;;;12.73;100.00
59475;BME280;45288;51.136;16.928;2024-03-23T13:19:32;98537.88;;;12.63;100.00
59475;BME280;45288;51.136;16.928;2024-03-23T13:21:58;98544.97;;;12.46;100.00
59475;BME280;45288;51.136;16.928;2024-03-23T13:24:26;98579.03;;;12.39;100.00
59475;BME280;45288;51.136;16.928;2024-03-23T13:26:53;98589.50;;;12.23;100.00
59475;BME280;45288;51.136;16.928;2024-03-23T13:29:19;98574.53;;;12.23;100.00
59475;BME280;45288;51.136;16.928;2024-03-23T13:31:46;98626.66;;;12.12;100.00
59475;BME280;45288;51.136;16.928;2024-03-23T13:34:13;98633.03;;;12.01;100.00
59475;BME280;45288;51.136;16.928;2024-03-23T13:36:41;98603.44;;;11.99;100.00
59475;BME280;45288;51.136;16.928;2024-03-23T13:39:07;98622.16;;;11.96;100.00
59475;BME280;45288;51.136;16.928;2024-03-23T13:41:49;98619.41;;;11.79;100.00
59475;BME280;45288;51.136;16.928;2024-03-23T13:44:14;98641.06;;;11.65;100.00
59475;BME280;45288;51.136;16.928;2024-03-23T13:46:42;98649.44;;;11.34;100.00
59475;BME280;45288;51.136;16.928;2024-03-23T13:49:31;98660.69;;;11.01;100.00
59475;BME280;45288;51.136;16.928;2024-03-23T13:51:58;98683.72;;;10.89;100.00
59475;BME280;45288;51.136;16.928;2024-03-23T13:54:25;98666.25;;;10.62;100.00
59475;BME280;45288;51.136;16.928;2024-03-23T13:56:51;98725.38;;;10.38;100.00
59475;BME280;45288;51.136;16.928;2024-03-23T13:59:17;98723.06;;;10.25;100.00
59475;BME280;45288;51.136;16.928;2024-03-23T14:01:46;98738.66;;;9.90;100.00
59475;BME280;45288;51.136;16.928;2024-03-23T14:04:13;98754.19;;;9.54;100.00
59475;BME280;45288;51.136;16.928;2024-03-23T14:06:39;98733.75;;;9.57;100.00